SKRH/RCH METAR and TAF weather

Enter ICAO airport designator
Station Type Date Time Source
SKRH METAR 2020/01/17 14:00 UTC NOAA

SKRH 171400Z 10018G29KT 9999 OVC015 29/22 A2992


Station Type Date Time Source
SKRH Decoded METAR 2020/01/17 14:00 UTC NOAA

Riohacha / Almirante Padilla, Colombia (SKRH) 11-32N 072-56W 4M
Jan 17, 2020 - 09:00 AM EST / 2020.01.17 1400 UTC
Wind: from the E (100 degrees) at 21 MPH (18 KT) gusting to 33 MPH (29 KT):0
Visibility: greater than 7 mile(s):0
Sky conditions: overcast
Temperature: 84 F (29 C)
Dew Point: 71 F (22 C)
Relative Humidity: 65%
Pressure (altimeter): 29.92 in. Hg (1013 hPa)
ob: SKRH 171400Z 10018G29KT 9999 OVC015 29/22 A2992
cycle: 14

Station Type Date Time Source
SKRH TAF 2015/07/31 18:51 UTC NOAA

TAF SKRH 311700Z 3118/0118 07010KT 9999 SCT017
TEMPO 3120/0103 09015KT CAVOK
TEMPO 0109/0114 9000 BKN015 TX36/3118Z TN28/0110Z

Example: see airport list